ADDS METAR Data INFO
IDs: Format: Raw Decoded Include TAF

Data at: 0855 UTC 19 Jun 2018

KGFL 190853Z AUTO 34009KT 10SM SCT026 BKN037 OVC095 21/18 A2976 RMK AO2 SLP074 T02060178 51022
KGFL 190753Z AUTO 05004KT 10SM OVC028 21/18 A2973 RMK AO2 SLP064 T02060183
KGFL 190653Z AUTO 06008KT 10SM OVC028 21/18 A2972 RMK AO2 SLP062 T02110183
KGFL 190623Z AUTO 05010KT 10SM BKN025 OVC034 21/18 A2972 RMK AO2 T02110183
KGFL 190553Z AUTO 06010KT 10SM BKN036 OVC055 22/19 A2969 RMK AO2 SLP050 T02170189 10272 20211 53005
KGFL 190453Z AUTO 07006KT 10SM BKN041 BKN049 24/21 A2967 RMK AO2 SLP043 T02440211 403280172
KGFL 190353Z AUTO 23006KT 10SM BKN046 BKN055 26/21 A2966 RMK AO2 SLP040 T02560206
KGFL 190253Z AUTO 19008KT 10SM BKN042 BKN095 24/22 A2968 RMK AO2 SLP045 T02390217 56001
KGFL 190153Z AUTO 18008KT 10SM OVC044 25/21 A2968 RMK AO2 SLP045 T02500211
KGFL 190053Z AUTO 18006KT 10SM CLR 24/21 A2966 RMK AO2 SLP042 T02440211
KGFL 182353Z AUTO 25005KT 10SM CLR 27/20 A2968 RMK AO2 SLP048 60000 T02720200 10328 20256 58008
KGFL 182253Z AUTO 24008KT 10SM CLR 28/20 A2969 RMK AO2 SLP050 T02780200
KGFL 182153Z AUTO 19006KT 10SM CLR 26/22 A2970 RMK AO2 SLP056 T02610222
KGFL 182053Z AUTO 20006KT 10SM CLR 28/21 A2970 RMK AO2 LTG DSNT E AND SE RAB03E24 SLP056 P0000 60000 T02780206 58018
KGFL 182041Z AUTO 22006KT 10SM CLR 28/21 A2971 RMK AO2 LTG DSNT NE-SE RAB03E24 P0000 T02830206
KGFL 182022Z AUTO 25012G25KT 10SM VCTS -RA FEW037 FEW060 SCT080 29/21 A2972 RMK AO2 LTG DSNT ALQDS RAB03 P0000 T02890206
KGFL 181953Z AUTO 24006KT 10SM CLR 30/23 A2972 RMK AO2 LTG DSNT ALQDS RAE1857 SLP061 P0000 T03000228
KGFL 181853Z AUTO 25007G27KT 9SM -RA FEW018 SCT055 BKN065 29/23 A2974 RMK AO2 PK WND 24027/1845 RAB33 SLP069 P0000 T02890228
KGFL 181753Z AUTO 22011G19KT 10SM FEW050 32/22 A2976 RMK AO2 SLP073 T03170222 10317 20211 58033
KGFL 181653Z AUTO 18008KT 10SM CLR 29/22 A2981 RMK AO2 SLP091 T02890222
KGFL 181553Z AUTO 18010KT 10SM CLR 28/21 A2984 RMK AO2 SLP100 T02830211
KGFL 181453Z AUTO 20011KT 10SM CLR 27/21 A2986 RMK AO2 SLP109 T02670206 58023
KGFL 181353Z AUTO 20009KT 10SM CLR 25/19 A2988 RMK AO2 SLP117 T02500194
KGFL 181253Z AUTO 19008KT 10SM CLR 23/18 A2991 RMK AO2 SLP128 T02330178
KGFL 181153Z AUTO 20009KT 10SM CLR 21/16 A2993 RMK AO2 SLP131 T02110161 10217 20172 58005
KGFL 181053Z AUTO 20003KT 10SM CLR 21/16 A2994 RMK AO2 SLP135 T02060156
KGFL 180953Z AUTO 21006KT 10SM CLR 19/14 A2993 RMK AO2 SLP134 T01940144
KGFL 180853Z AUTO 20007KT 10SM CLR 20/14 A2994 RMK AO2 SLP136 T02000144 56014
KGFL 180753Z AUTO 19006KT 10SM CLR 21/14 A2996 RMK AO2 SLP140 T02110144
KGFL 180653Z AUTO 20005KT 10SM CLR 19/15 A2997 RMK AO2 SLP145 T01940150
KGFL 180553Z AUTO 00000KT 10SM CLR 18/16 A2998 RMK AO2 SLP151 T01780156 10256 20167 58001
KGFL 180453Z AUTO 00000KT 10SM CLR 17/16 A2999 RMK AO2 SLP154 T01720156 402890100
KGFL 180353Z AUTO 00000KT 10SM CLR 17/15 A2999 RMK AO2 SLP154 T01720150
KGFL 180253Z AUTO 00000KT 10SM CLR 17/16 A2999 RMK AO2 SLP154 T01670156 56001
KGFL 180153Z AUTO 00000KT 10SM CLR 18/14 A2999 RMK AO2 SLP154 T01830144
KGFL 180053Z AUTO 00000KT 10SM CLR 21/15 A2998 RMK AO2 SLP152 T02110150
KGFL 172353Z AUTO 17004KT 10SM CLR 26/14 A2999 RMK AO2 SLP153 T02560139 10289 20256 58014
KGFL 172253Z AUTO 17004KT 10SM CLR 27/14 A3001 RMK AO2 SLP160 T02720144
KGFL 172153Z AUTO 15006KT 10SM CLR 28/13 A3002 RMK AO2 SLP164 T02780128